Welcome to Des Moines Iowa Weather. I am an independent private personal weather station on the Northwest Side of Des Moines, Iowa. Just East of Windsor Heights and just West of Glendale . This site is also mobile friendly.

There are no active watches, warnings or advisories


Visit our other weather sites:

Historical Data

Weather Station Setup



Weather Underground History page Text

Daily Summary for February 9, 2017 Units:  English    Metric   Both
« Previous Day
Next Day »
Daily Weekly Monthly Yearly Custom
  High: Low: Average:
Temperature: 21.5 °F 8.6 °F 14.7 °F
Dew Point: 13.0 °F 4.0 °F 7.5 °F
Humidity: 84 % 59 % 74 %
Wind Speed: 8.0 mph 0.0 mph 1.6 mph
Wind Gust: 11.0 mph - -
Wind:- - SW
Pressure: 30.51 in 30.14 in -
Precipitation: 0.00 in    
Historical Graphs
 
 
Tabular Data for February 9, 2017
Time Temperature Dew Point Pressure Wind Wind Speed Wind Gust Humidity Rainfall Rate (Hourly)
00:02 12.7 °F 7.0 °F 30.37 in NW 3.0 mph 6.0 mph 77 % 0.00 in
00:17 12.2 °F 6.0 °F 30.38 in WNW 2.0 mph 5.0 mph 77 % 0.00 in
00:32 11.7 °F 6.0 °F 30.38 in WNW 3.0 mph 6.0 mph 77 % 0.00 in
00:47 11.3 °F 6.0 °F 30.38 in NW 2.0 mph 8.0 mph 78 % 0.00 in
01:02 11.1 °F 6.0 °F 30.38 in NW 2.0 mph 8.0 mph 78 % 0.00 in
01:17 10.9 °F 6.0 °F 30.38 in NW 8.0 mph 8.0 mph 79 % 0.00 in
01:32 10.7 °F 5.0 °F 30.38 in WSW 2.0 mph 6.0 mph 79 % 0.00 in
01:47 10.6 °F 5.0 °F 30.38 in NW 2.0 mph 6.0 mph 79 % 0.00 in
02:02 10.4 °F 5.0 °F 30.39 in NW 1.0 mph 5.0 mph 80 % 0.00 in
02:17 10.2 °F 5.0 °F 30.40 in NW 1.0 mph 4.0 mph 80 % 0.00 in
02:32 9.9 °F 5.0 °F 30.39 in WNW 1.0 mph 4.0 mph 80 % 0.00 in
02:47 9.8 °F 5.0 °F 30.40 in WNW 1.0 mph 8.0 mph 81 % 0.00 in
03:02 9.7 °F 5.0 °F 30.39 in NNW 1.0 mph 11.0 mph 81 % 0.00 in
03:17 9.6 °F 5.0 °F 30.40 in WNW 2.0 mph 4.0 mph 81 % 0.00 in
03:32 9.3 °F 5.0 °F 30.40 in NW 1.0 mph 4.0 mph 81 % 0.00 in
03:47 9.2 °F 5.0 °F 30.40 in NNW 4.0 mph 4.0 mph 81 % 0.00 in
04:02 9.1 °F 4.0 °F 30.40 in NW 1.0 mph 5.0 mph 81 % 0.00 in
04:17 9.1 °F 4.0 °F 30.40 in NW 2.0 mph 4.0 mph 81 % 0.00 in
04:32 9.0 °F 4.0 °F 30.41 in NW 1.0 mph 3.0 mph 81 % 0.00 in
04:47 8.9 °F 4.0 °F 30.41 in NW 1.0 mph 3.0 mph 81 % 0.00 in
05:02 8.9 °F 5.0 °F 30.41 in Calm   6.0 mph 82 % 0.00 in
05:17 9.0 °F 5.0 °F 30.43 in NW 1.0 mph 4.0 mph 82 % 0.00 in
05:32 9.3 °F 5.0 °F 30.43 in Calm   6.0 mph 82 % 0.00 in
05:47 9.6 °F 5.0 °F 30.44 in Calm   5.0 mph 82 % 0.00 in
06:02 9.5 °F 5.0 °F 30.44 in Calm   2.0 mph 82 % 0.00 in
06:17 9.3 °F 5.0 °F 30.45 in Calm   3.0 mph 82 % 0.00 in
06:32 9.0 °F 5.0 °F 30.45 in Calm   2.0 mph 82 % 0.00 in
06:47 8.8 °F 4.0 °F 30.45 in Calm   1.0 mph 82 % 0.00 in
07:02 8.8 °F 5.0 °F 30.45 in Calm   2.0 mph 83 % 0.00 in
07:17 8.8 °F 5.0 °F 30.46 in Calm   2.0 mph 83 % 0.00 in
07:33 8.7 °F 5.0 °F 30.48 in Calm   2.0 mph 83 % 0.00 in
07:47 8.6 °F 5.0 °F 30.48 in Calm   2.0 mph 83 % 0.00 in
08:03 8.9 °F 5.0 °F 30.49 in NW 1.0 mph 4.0 mph 84 % 0.00 in
08:18 9.4 °F 5.0 °F 30.49 in WNW 5.0 mph 5.0 mph 83 % 0.00 in
08:33 10.1 °F 6.0 °F 30.49 in Calm   4.0 mph 83 % 0.00 in
08:48 10.7 °F 6.0 °F 30.50 in Calm   4.0 mph 81 % 0.00 in
09:03 11.5 °F 7.0 °F 30.50 in NW 1.0 mph 5.0 mph 81 % 0.00 in
09:18 11.7 °F 6.0 °F 30.51 in NNW 3.0 mph 8.0 mph 79 % 0.00 in
09:33 12.8 °F 7.0 °F 30.50 in WNW 1.0 mph 6.0 mph 77 % 0.00 in
09:48 12.9 °F 7.0 °F 30.50 in WNW 2.0 mph 4.0 mph 76 % 0.00 in
10:03 13.6 °F 7.0 °F 30.49 in NE 2.0 mph 6.0 mph 74 % 0.00 in
10:18 14.4 °F 7.0 °F 30.49 in NW 2.0 mph 5.0 mph 73 % 0.00 in
10:33 14.8 °F 7.0 °F 30.48 in NNE 4.0 mph 5.0 mph 70 % 0.00 in
10:48 15.5 °F 7.0 °F 30.47 in NE 1.0 mph 5.0 mph 68 % 0.00 in
11:03 15.9 °F 7.0 °F 30.47 in North 1.0 mph 3.0 mph 67 % 0.00 in
11:18 16.1 °F 6.0 °F 30.47 in NE 2.0 mph 4.0 mph 64 % 0.00 in
11:33 17.3 °F 7.0 °F 30.46 in ENE 1.0 mph 3.0 mph 64 % 0.00 in
11:48 17.4 °F 6.0 °F 30.46 in SE 4.0 mph 4.0 mph 62 % 0.00 in
12:03 18.9 °F 7.0 °F 30.46 in Calm   3.0 mph 61 % 0.00 in
12:18 19.2 °F 8.0 °F 30.46 in ESE 3.0 mph 4.0 mph 61 % 0.00 in
12:33 19.4 °F 9.0 °F 30.45 in South 1.0 mph 6.0 mph 63 % 0.00 in
12:48 19.2 °F 8.0 °F 30.45 in Calm   5.0 mph 62 % 0.00 in
13:09 19.0 °F 8.0 °F 30.45 in South 1.0 mph 5.0 mph 62 % 0.00 in
13:18 18.5 °F 7.0 °F 30.44 in SSW 2.0 mph 4.0 mph 62 % 0.00 in
13:33 18.7 °F 8.0 °F 30.42 in SE 3.0 mph 6.0 mph 64 % 0.00 in
13:48 19.5 °F 9.0 °F 30.41 in SSE 1.0 mph 6.0 mph 63 % 0.00 in
14:03 19.1 °F 9.0 °F 30.41 in SSE 2.0 mph 6.0 mph 64 % 0.00 in
14:18 19.5 °F 8.0 °F 30.40 in South 1.0 mph 5.0 mph 61 % 0.00 in
14:33 19.9 °F 8.0 °F 30.39 in South 3.0 mph 6.0 mph 61 % 0.00 in
14:48 20.3 °F 8.0 °F 30.38 in WSW 2.0 mph 7.0 mph 60 % 0.00 in
15:03 20.5 °F 9.0 °F 30.38 in South 6.0 mph 8.0 mph 61 % 0.00 in
15:18 20.7 °F 9.0 °F 30.36 in SSE 1.0 mph 5.0 mph 60 % 0.00 in
15:34 21.0 °F 9.0 °F 30.37 in SE 3.0 mph 6.0 mph 60 % 0.00 in
15:49 21.3 °F 9.0 °F 30.36 in SE 3.0 mph 4.0 mph 59 % 0.00 in
16:04 21.5 °F 9.0 °F 30.36 in SSW 1.0 mph 4.0 mph 60 % 0.00 in
16:19 21.2 °F 9.0 °F 30.35 in SE 1.0 mph 4.0 mph 60 % 0.00 in
16:34 21.0 °F 9.0 °F 30.34 in SSW 2.0 mph 8.0 mph 59 % 0.00 in
19:19 19.5 °F 11.0 °F 30.24 in SSE 1.0 mph 9.0 mph 69 % 0.00 in
19:49 19.4 °F 11.0 °F 30.23 in South 1.0 mph 6.0 mph 70 % 0.00 in
20:04 19.3 °F 11.0 °F 30.23 in SSE 3.0 mph 5.0 mph 71 % 0.00 in
20:19 19.2 °F 11.0 °F 30.23 in South 1.0 mph 6.0 mph 71 % 0.00 in
20:34 19.1 °F 11.0 °F 30.23 in Calm   4.0 mph 72 % 0.00 in
20:49 19.0 °F 12.0 °F 30.24 in Calm   6.0 mph 73 % 0.00 in
21:04 19.0 °F 12.0 °F 30.24 in SSE 1.0 mph 5.0 mph 73 % 0.00 in
21:19 19.0 °F 12.0 °F 30.24 in SSE 1.0 mph 3.0 mph 74 % 0.00 in
21:34 18.9 °F 12.0 °F 30.24 in SSE 2.0 mph 3.0 mph 74 % 0.00 in
21:49 18.8 °F 12.0 °F 30.22 in SSE 2.0 mph 5.0 mph 75 % 0.00 in
22:04 18.8 °F 12.0 °F 30.20 in Calm   5.0 mph 75 % 0.00 in
22:19 19.0 °F 12.0 °F 30.20 in SSE 4.0 mph 5.0 mph 75 % 0.00 in
22:34 19.0 °F 12.0 °F 30.19 in Calm   4.0 mph 75 % 0.00 in
22:49 19.1 °F 12.0 °F 30.18 in SSE 1.0 mph 6.0 mph 75 % 0.00 in
23:04 19.2 °F 13.0 °F 30.16 in SSE 1.0 mph 5.0 mph 75 % 0.00 in
23:19 19.2 °F 13.0 °F 30.16 in SSE 3.0 mph 5.0 mph 75 % 0.00 in
23:34 19.2 °F 13.0 °F 30.15 in SSE 2.0 mph 10.0 mph 76 % 0.00 in
23:49 19.1 °F 13.0 °F 30.14 in SSE 3.0 mph 5.0 mph 76 % 0.00 in
Des Moines Weather and Climate
Compliments of Weather Underground - 3 mb

Script developed by  Jim McMurry - jmcmurry@mwt.net Adapted for the template by  Wim van der Kuil - Leuven-Template.eu

You find our weather info also at:

Weather Underground

Equipment we use:

Weather-station
Davis VP2 Plus

Weather-program
Davis Weatherlink.Com

Weather-server
iMac (Retina 4K, 21.5-inch, Late 2015)

Provider
Hostmonster.com

Davis VP2 Plus

Davis Weatherlink.Com

iMac (Retina 4K, 21.5-inch, Late 2015)

Hostmonster.com